createdAt,value
2022-11-22T00:00:18.915Z,918.44
2022-11-22T00:01:19.260Z,918.44
2022-11-22T00:02:19.618Z,918.46
2022-11-22T00:03:19.733Z,918.48
2022-11-22T00:04:20.366Z,918.44
2022-11-22T00:05:21.087Z,918.45
2022-11-22T00:06:21.269Z,918.47
2022-11-22T00:07:21.970Z,918.48
2022-11-22T00:08:22.549Z,918.54
2022-11-22T00:09:23.460Z,918.52
2022-11-22T00:10:24.496Z,918.54
2022-11-22T00:11:25.409Z,918.51
2022-11-22T00:12:26.336Z,918.47
2022-11-22T00:13:26.538Z,918.49
2022-11-22T00:14:26.754Z,918.55
2022-11-22T00:15:27.487Z,918.56
2022-11-22T00:16:28.386Z,918.59
2022-11-22T00:17:29.308Z,918.56
2022-11-22T00:18:29.496Z,918.6
2022-11-22T00:19:30.304Z,918.6
2022-11-22T00:20:30.124Z,918.6
2022-11-22T00:21:31.028Z,918.63
2022-11-22T00:22:32.097Z,918.63
2022-11-22T00:23:32.819Z,918.64
2022-11-22T00:24:33.101Z,918.59
2022-11-22T00:25:33.521Z,918.5
2022-11-22T00:26:34.160Z,918.47
2022-11-22T00:27:34.767Z,918.48
2022-11-22T00:28:35.106Z,918.48
2022-11-22T00:29:35.585Z,918.56
2022-11-22T00:30:35.788Z,918.58
2022-11-22T00:31:36.681Z,918.59
2022-11-22T00:32:37.628Z,918.57
2022-11-22T00:33:37.858Z,918.56
2022-11-22T00:34:38.049Z,918.57
2022-11-22T00:35:39.074Z,918.59
2022-11-22T00:36:39.265Z,918.63
2022-11-22T00:37:39.902Z,918.7
2022-11-22T00:38:40.935Z,918.62
2022-11-22T00:39:41.482Z,918.67
2022-11-22T00:40:41.670Z,918.63
2022-11-22T00:41:41.856Z,918.56
2022-11-22T00:42:42.769Z,918.57
2022-11-22T00:43:43.665Z,918.57
2022-11-22T00:44:44.583Z,918.63
2022-11-22T00:45:44.997Z,918.64
2022-11-22T00:46:45.890Z,918.61
2022-11-22T00:47:46.075Z,918.53
2022-11-22T00:48:46.708Z,918.52
2022-11-22T00:49:46.898Z,918.56
2022-11-22T00:50:47.813Z,918.62
2022-11-22T00:51:48.431Z,918.53
2022-11-22T00:52:48.642Z,918.42
2022-11-22T00:53:48.844Z,918.33
2022-11-22T00:54:54.435Z,918.38
2022-11-22T00:55:50.588Z,918.38
2022-11-22T00:56:50.781Z,918.4
2022-11-22T00:57:50.995Z,918.43
2022-11-22T00:58:51.897Z,918.33
2022-11-22T00:59:52.529Z,918.35
2022-11-22T01:00:56.410Z,918.33
2022-11-22T01:01:53.385Z,918.39
2022-11-22T01:02:54.294Z,918.46
2022-11-22T01:03:54.777Z,918.52
2022-11-22T01:04:55.700Z,918.5
2022-11-22T01:05:56.408Z,918.47
2022-11-22T01:06:56.729Z,918.51
2022-11-22T01:07:57.649Z,918.5
2022-11-22T01:08:58.547Z,918.5
2022-11-22T01:09:59.080Z,918.42
2022-11-22T01:10:59.982Z,918.38
2022-11-22T01:12:00.597Z,918.34
2022-11-22T01:13:01.499Z,918.29
2022-11-22T01:14:02.094Z,918.28
2022-11-22T01:15:03.024Z,918.27
2022-11-22T01:16:03.314Z,918.22
2022-11-22T01:17:03.923Z,918.22
2022-11-22T01:18:04.558Z,918.2
2022-11-22T01:19:05.468Z,918.18
2022-11-22T01:20:06.383Z,918.23
2022-11-22T01:21:06.601Z,918.24
2022-11-22T01:22:07.121Z,918.28
2022-11-22T01:23:07.625Z,918.27
2022-11-22T01:24:08.546Z,918.34
2022-11-22T01:25:08.794Z,918.31
2022-11-22T01:26:09.200Z,918.29
2022-11-22T01:27:09.688Z,918.27
2022-11-22T01:28:09.896Z,918.28
2022-11-22T01:29:10.804Z,918.3
2022-11-22T01:30:10.971Z,918.29
2022-11-22T01:31:11.251Z,918.31
2022-11-22T01:32:12.133Z,918.38
2022-11-22T01:33:12.343Z,918.42
2022-11-22T01:34:13.253Z,918.39
2022-11-22T01:35:13.589Z,918.41
2022-11-22T01:36:14.202Z,918.42
2022-11-22T01:37:14.819Z,918.43
2022-11-22T01:38:15.744Z,918.38
2022-11-22T01:39:16.237Z,918.37
2022-11-22T01:40:16.574Z,918.35
2022-11-22T01:41:17.057Z,918.37
2022-11-22T01:42:17.964Z,918.35
2022-11-22T01:43:18.182Z,918.33
2022-11-22T01:44:19.089Z,918.29
2022-11-22T01:45:19.713Z,918.23
2022-11-22T01:46:20.407Z,918.22
2022-11-22T01:47:21.011Z,918.22
2022-11-22T01:48:21.890Z,918.21
2022-11-22T01:49:22.800Z,918.24
2022-11-22T01:50:23.627Z,918.29
2022-11-22T01:51:24.535Z,918.36
2022-11-22T01:52:25.425Z,918.37
2022-11-22T01:53:26.361Z,918.45
2022-11-22T01:54:26.859Z,918.49
2022-11-22T01:55:27.102Z,918.47
2022-11-22T01:56:27.408Z,918.51
2022-11-22T01:57:27.593Z,918.57
2022-11-22T01:58:27.777Z,918.58
2022-11-22T01:59:28.983Z,918.58
2022-11-22T02:00:29.732Z,918.58
2022-11-22T02:01:30.161Z,918.52
2022-11-22T02:02:30.865Z,918.54
2022-11-22T02:03:31.772Z,918.54
2022-11-22T02:04:32.393Z,918.5
2022-11-22T02:05:32.874Z,918.48
2022-11-22T02:06:33.610Z,918.5
2022-11-22T02:07:34.331Z,918.51
2022-11-22T02:08:34.772Z,918.51
2022-11-22T02:09:35.668Z,918.5
2022-11-22T02:10:36.201Z,918.51
2022-11-22T02:11:37.097Z,918.5
2022-11-22T02:12:37.288Z,918.5
2022-11-22T02:13:37.488Z,918.51
2022-11-22T02:14:38.414Z,918.49
2022-11-22T02:15:39.344Z,918.51
2022-11-22T02:16:40.085Z,918.51
2022-11-22T02:17:40.998Z,918.49
2022-11-22T02:18:41.483Z,918.51
2022-11-22T02:19:42.105Z,918.5
2022-11-22T02:20:42.312Z,918.53
2022-11-22T02:21:42.634Z,918.5
2022-11-22T02:22:43.552Z,918.52
2022-11-22T02:23:44.216Z,918.47
2022-11-22T02:24:45.161Z,918.45
2022-11-22T02:25:45.411Z,918.48
2022-11-22T02:26:45.680Z,918.44
2022-11-22T02:27:46.292Z,918.51
2022-11-22T02:28:47.243Z,918.5
2022-11-22T02:29:47.432Z,918.51
2022-11-22T02:30:48.343Z,918.56
2022-11-22T02:31:48.689Z,918.54
2022-11-22T02:32:48.890Z,918.6
2022-11-22T02:33:49.077Z,918.56
2022-11-22T02:34:49.208Z,918.58
2022-11-22T02:35:49.843Z,918.6
2022-11-22T02:36:50.850Z,918.58
2022-11-22T02:37:51.491Z,918.6
2022-11-22T02:38:51.870Z,918.56
2022-11-22T02:39:52.082Z,918.62
2022-11-22T02:40:52.333Z,918.6
2022-11-22T02:41:52.532Z,918.57
2022-11-22T02:42:53.422Z,918.62
2022-11-22T02:43:54.045Z,918.64
2022-11-22T02:44:54.248Z,918.65
2022-11-22T02:45:55.172Z,918.65
2022-11-22T02:46:56.169Z,918.62
2022-11-22T02:47:57.080Z,918.62
2022-11-22T02:48:57.699Z,918.64
2022-11-22T02:49:58.317Z,918.63
2022-11-22T02:50:58.653Z,918.59
2022-11-22T02:51:59.268Z,918.64
2022-11-22T02:52:59.483Z,918.58
2022-11-22T02:54:00.130Z,918.54
2022-11-22T02:55:00.323Z,918.57
2022-11-22T02:56:00.588Z,918.61
2022-11-22T02:57:01.098Z,918.58
2022-11-22T02:58:01.580Z,918.62
2022-11-22T02:59:01.787Z,918.6
2022-11-22T03:00:01.979Z,918.63
2022-11-22T03:01:02.931Z,918.61
2022-11-22T03:02:03.727Z,918.62
2022-11-22T03:03:03.959Z,918.69
2022-11-22T03:04:04.564Z,918.73
2022-11-22T03:05:04.757Z,918.76
2022-11-22T03:06:04.965Z,918.76
2022-11-22T03:07:05.594Z,918.82
2022-11-22T03:08:06.274Z,918.8
2022-11-22T03:09:06.501Z,918.82
2022-11-22T03:10:07.047Z,918.82
2022-11-22T03:11:07.291Z,918.84
2022-11-22T03:12:07.480Z,918.8
2022-11-22T03:13:08.383Z,918.84
2022-11-22T03:14:08.714Z,918.83
2022-11-22T03:15:09.622Z,918.79
2022-11-22T03:16:09.814Z,918.81
2022-11-22T03:17:10.540Z,918.74
2022-11-22T03:18:11.024Z,918.72
2022-11-22T03:19:11.639Z,918.75
2022-11-22T03:20:12.540Z,918.72
2022-11-22T03:21:13.462Z,918.72
2022-11-22T03:22:13.670Z,918.69
2022-11-22T03:23:13.884Z,918.69
2022-11-22T03:24:14.808Z,918.71
2022-11-22T03:25:15.082Z,918.73
2022-11-22T03:26:15.346Z,918.71
2022-11-22T03:27:16.331Z,918.7
2022-11-22T03:28:16.953Z,918.67
2022-11-22T03:29:17.143Z,918.68
2022-11-22T03:30:17.661Z,918.72
2022-11-22T03:31:18.573Z,918.74
2022-11-22T03:32:19.298Z,918.7
2022-11-22T03:33:19.505Z,918.67
2022-11-22T03:34:20.404Z,918.67
2022-11-22T03:35:21.032Z,918.64
2022-11-22T03:36:21.933Z,918.65
2022-11-22T03:37:22.687Z,918.66
2022-11-22T03:38:23.616Z,918.67
2022-11-22T03:39:24.550Z,918.67
2022-11-22T03:40:25.406Z,918.68
2022-11-22T03:41:26.373Z,918.65
2022-11-22T03:42:26.583Z,918.65
2022-11-22T03:43:26.782Z,918.66
2022-11-22T03:44:27.267Z,918.67
2022-11-22T03:45:28.194Z,918.69
2022-11-22T03:46:29.102Z,918.67
2022-11-22T03:47:30.131Z,918.7
2022-11-22T03:48:30.322Z,918.7
2022-11-22T03:49:30.842Z,918.71
2022-11-22T03:50:30.852Z,918.76
2022-11-22T03:51:31.464Z,918.75
2022-11-22T03:52:32.373Z,918.76
2022-11-22T03:53:33.281Z,918.76
2022-11-22T03:54:33.653Z,918.82
2022-11-22T03:55:34.280Z,918.78
2022-11-22T03:56:34.808Z,918.84
2022-11-22T03:57:35.557Z,918.83
2022-11-22T03:58:36.465Z,918.85
2022-11-22T03:59:37.217Z,918.86
2022-11-22T04:00:38.129Z,918.85
2022-11-22T04:01:38.393Z,918.87
2022-11-22T04:02:38.999Z,918.9
2022-11-22T04:03:39.912Z,918.89
2022-11-22T04:04:40.114Z,918.9
2022-11-22T04:05:40.322Z,918.93
2022-11-22T04:06:41.227Z,918.9
2022-11-22T04:07:42.364Z,918.9
2022-11-22T04:08:42.844Z,918.92
2022-11-22T04:09:43.774Z,918.93
2022-11-22T04:10:44.703Z,918.93
2022-11-22T04:11:44.945Z,918.91
2022-11-22T04:12:45.560Z,918.93
2022-11-22T04:13:46.047Z,918.93
2022-11-22T04:14:46.259Z,918.91
2022-11-22T04:15:46.448Z,918.95
2022-11-22T04:16:46.664Z,918.92
2022-11-22T04:17:47.670Z,918.91
2022-11-22T04:18:47.881Z,918.93
2022-11-22T04:19:48.794Z,918.93
2022-11-22T04:20:49.700Z,918.9
2022-11-22T04:21:49.887Z,918.87
2022-11-22T04:22:50.797Z,918.87
2022-11-22T04:23:50.986Z,918.85
2022-11-22T04:24:51.243Z,918.81
2022-11-22T04:25:52.147Z,918.8
2022-11-22T04:26:52.722Z,918.81
2022-11-22T04:27:52.882Z,918.77
2022-11-22T04:29:09.007Z,918.8
2022-11-22T04:29:53.892Z,918.8
2022-11-22T04:30:54.797Z,918.85
2022-11-22T04:31:55.708Z,918.82
2022-11-22T04:32:56.138Z,918.83
2022-11-22T04:33:56.583Z,918.84
2022-11-22T04:34:56.928Z,918.86
2022-11-22T04:35:57.141Z,918.85
2022-11-22T04:36:58.071Z,918.87
2022-11-22T04:37:58.358Z,918.88
2022-11-22T04:38:58.547Z,918.9
2022-11-22T04:39:59.485Z,918.88
2022-11-22T04:40:59.715Z,918.86
2022-11-22T04:41:59.955Z,918.92
2022-11-22T04:43:00.294Z,918.86
2022-11-22T04:44:00.919Z,918.88
2022-11-22T04:45:01.548Z,918.9
2022-11-22T04:46:01.732Z,918.95
2022-11-22T04:47:02.040Z,918.94
2022-11-22T04:48:02.426Z,918.93
2022-11-22T04:49:02.743Z,918.94
2022-11-22T04:50:03.348Z,918.95
2022-11-22T04:51:03.696Z,918.95
2022-11-22T04:52:03.899Z,918.96
2022-11-22T04:53:04.088Z,919
2022-11-22T04:54:04.411Z,919.01
2022-11-22T04:55:04.683Z,919.01
2022-11-22T04:56:04.878Z,919
2022-11-22T04:57:05.145Z,919.02
2022-11-22T04:58:06.169Z,919.01
2022-11-22T04:59:06.786Z,919.06
2022-11-22T05:00:06.982Z,919.1
2022-11-22T05:01:07.940Z,919.07
2022-11-22T05:02:08.819Z,919.1
2022-11-22T05:03:09.717Z,919.12
2022-11-22T05:04:09.898Z,919.09
2022-11-22T05:05:10.802Z,919.09
2022-11-22T05:06:11.410Z,919.05
2022-11-22T05:07:11.777Z,919.09
2022-11-22T05:08:12.124Z,919.06
2022-11-22T05:09:13.027Z,919.12
2022-11-22T05:10:13.338Z,919.12
2022-11-22T05:11:13.532Z,919.13
2022-11-22T05:12:14.484Z,919.21
2022-11-22T05:13:15.151Z,919.17
2022-11-22T05:14:15.771Z,919.2
2022-11-22T05:15:16.684Z,919.21
2022-11-22T05:16:16.874Z,919.23
2022-11-22T05:17:17.363Z,919.26
2022-11-22T05:18:17.670Z,919.26
2022-11-22T05:19:17.988Z,919.24
2022-11-22T05:20:18.548Z,919.28
2022-11-22T05:21:19.177Z,919.3
2022-11-22T05:22:19.384Z,919.28
2022-11-22T05:23:19.866Z,919.32
2022-11-22T05:24:20.484Z,919.31
2022-11-22T05:25:25.425Z,919.31
2022-11-22T05:26:22.329Z,919.32
2022-11-22T05:27:22.860Z,919.3
2022-11-22T05:28:23.560Z,919.29
2022-11-22T05:29:24.469Z,919.32
2022-11-22T05:30:25.122Z,919.31
2022-11-22T05:31:25.311Z,919.3
2022-11-22T05:32:25.819Z,919.36
2022-11-22T05:33:26.837Z,919.31
2022-11-22T05:34:27.770Z,919.38
2022-11-22T05:35:28.415Z,919.37
2022-11-22T05:36:28.607Z,919.32
2022-11-22T05:37:29.523Z,919.33
2022-11-22T05:38:29.861Z,919.31
2022-11-22T05:39:30.618Z,919.33
2022-11-22T05:40:30.702Z,919.29
2022-11-22T05:41:30.898Z,919.33
2022-11-22T05:42:31.140Z,919.31
2022-11-22T05:43:31.333Z,919.33
2022-11-22T05:44:32.268Z,919.26
2022-11-22T05:45:32.756Z,919.37
2022-11-22T05:46:33.384Z,919.29
2022-11-22T05:47:33.706Z,919.37
2022-11-22T05:48:34.123Z,919.3
2022-11-22T05:49:34.312Z,919.32
2022-11-22T05:50:34.501Z,919.33
2022-11-22T05:51:35.303Z,919.35
2022-11-22T05:52:35.693Z,919.34
2022-11-22T05:53:36.182Z,919.34
2022-11-22T05:54:36.799Z,919.36
2022-11-22T05:55:37.723Z,919.37
2022-11-22T05:56:38.216Z,919.38
2022-11-22T05:57:38.440Z,919.4
2022-11-22T05:58:39.171Z,919.41
2022-11-22T05:59:43.853Z,919.42
2022-11-22T06:00:40.774Z,919.43
2022-11-22T06:01:41.457Z,919.39
2022-11-22T06:02:42.436Z,919.43
2022-11-22T06:03:43.063Z,919.41
2022-11-22T06:04:43.547Z,919.42
2022-11-22T06:05:44.441Z,919.48
2022-11-22T06:06:45.354Z,919.47
2022-11-22T06:07:46.181Z,919.46
2022-11-22T06:08:46.706Z,919.51
2022-11-22T06:09:46.903Z,919.55
2022-11-22T06:10:47.839Z,919.55
2022-11-22T06:11:48.476Z,919.55
2022-11-22T06:12:49.430Z,919.59
2022-11-22T06:13:50.040Z,919.57
2022-11-22T06:14:51.026Z,919.59
2022-11-22T06:15:51.640Z,919.6
2022-11-22T06:16:51.846Z,919.6
2022-11-22T06:17:52.035Z,919.67
2022-11-22T06:18:53.056Z,919.67
2022-11-22T06:19:53.336Z,919.67
2022-11-22T06:20:53.510Z,919.67
2022-11-22T06:21:53.696Z,919.71
2022-11-22T06:22:54.311Z,919.78
2022-11-22T06:23:55.084Z,919.87
2022-11-22T06:24:55.272Z,919.84
2022-11-22T06:25:55.504Z,919.9
2022-11-22T06:26:55.991Z,919.85
2022-11-22T06:27:56.521Z,919.94
2022-11-22T06:28:57.521Z,919.93
2022-11-22T06:29:57.735Z,920
2022-11-22T06:30:57.968Z,919.99
2022-11-22T06:32:01.956Z,919.99
2022-11-22T06:32:58.276Z,920.02
2022-11-22T06:33:58.567Z,920.06
2022-11-22T06:34:59.480Z,920.1
2022-11-22T06:36:00.394Z,920.11
2022-11-22T06:37:01.019Z,920.12
2022-11-22T06:38:01.246Z,920.16
2022-11-22T06:39:01.970Z,920.15
2022-11-22T06:40:02.870Z,920.18
2022-11-22T06:41:03.508Z,920.17
2022-11-22T06:42:04.004Z,920.16
2022-11-22T06:43:04.990Z,920.19
2022-11-22T06:44:05.900Z,920.29
2022-11-22T06:45:06.110Z,920.24
2022-11-22T06:46:06.440Z,920.29
2022-11-22T06:47:07.355Z,920.28
2022-11-22T06:48:07.546Z,920.34
2022-11-22T06:49:08.246Z,920.33
2022-11-22T06:50:09.169Z,920.34
2022-11-22T06:51:09.411Z,920.31
2022-11-22T06:52:10.305Z,920.36
2022-11-22T06:53:26.502Z,920.36
2022-11-22T06:54:11.290Z,920.34
2022-11-22T06:55:27.415Z,920.4
2022-11-22T06:56:11.684Z,920.34
2022-11-22T06:57:11.904Z,920.33
2022-11-22T06:58:12.871Z,920.32
2022-11-22T06:59:13.465Z,920.32
2022-11-22T07:00:13.777Z,920.28
2022-11-22T07:01:14.895Z,920.3
2022-11-22T07:02:15.056Z,920.33
2022-11-22T07:03:15.727Z,920.32
2022-11-22T07:04:16.626Z,920.35
2022-11-22T07:05:25.456Z,920.4
2022-11-22T07:06:17.879Z,920.44
2022-11-22T07:07:18.576Z,920.44
2022-11-22T07:08:19.574Z,920.45
2022-11-22T07:09:20.283Z,920.46
2022-11-22T07:10:21.013Z,920.45
2022-11-22T07:11:21.245Z,920.49
2022-11-22T07:12:21.443Z,920.55
2022-11-22T07:13:21.787Z,920.56
2022-11-22T07:14:21.992Z,920.55
2022-11-22T07:15:22.880Z,920.52
2022-11-22T07:16:23.074Z,920.55
2022-11-22T07:17:23.263Z,920.52
2022-11-22T07:18:23.877Z,920.54
2022-11-22T07:19:24.205Z,920.54
2022-11-22T07:20:24.990Z,920.57
2022-11-22T07:21:25.567Z,920.6
2022-11-22T07:22:25.766Z,920.54
2022-11-22T07:23:26.662Z,920.56
2022-11-22T07:24:27.574Z,920.58
2022-11-22T07:25:27.782Z,920.61
2022-11-22T07:26:28.893Z,920.6
2022-11-22T07:27:29.122Z,920.67
2022-11-22T07:28:29.388Z,920.65
2022-11-22T07:29:30.756Z,920.67
2022-11-22T07:30:31.020Z,920.7
2022-11-22T07:31:31.630Z,920.71
2022-11-22T07:32:32.547Z,920.77
2022-11-22T07:33:33.061Z,920.78
2022-11-22T07:34:33.482Z,920.78
2022-11-22T07:35:34.371Z,920.78
2022-11-22T07:36:34.585Z,920.76
2022-11-22T07:37:35.619Z,920.76
2022-11-22T07:38:36.571Z,920.73
2022-11-22T07:39:37.642Z,920.76
2022-11-22T07:40:38.157Z,920.76
2022-11-22T07:41:38.390Z,920.81
2022-11-22T07:42:38.599Z,920.76
2022-11-22T07:43:39.177Z,920.83
2022-11-22T07:44:39.842Z,920.84
2022-11-22T07:45:40.736Z,920.8
2022-11-22T07:46:41.642Z,920.82
2022-11-22T07:47:42.533Z,920.83
2022-11-22T07:48:43.022Z,920.85
2022-11-22T07:49:43.619Z,920.89
2022-11-22T07:50:44.543Z,920.88
2022-11-22T07:51:44.741Z,920.89
2022-11-22T07:52:45.645Z,920.89
2022-11-22T07:53:46.133Z,920.93
2022-11-22T07:54:46.483Z,920.96
2022-11-22T07:55:47.409Z,920.94
2022-11-22T07:56:48.213Z,920.95
2022-11-22T07:57:48.497Z,920.96
2022-11-22T07:58:49.386Z,920.99
2022-11-22T07:59:49.620Z,921
2022-11-22T08:00:49.827Z,921.01
2022-11-22T08:01:50.268Z,921.05
2022-11-22T08:02:51.027Z,921.06
2022-11-22T08:03:51.969Z,921.1
2022-11-22T08:04:52.897Z,921.13
2022-11-22T08:05:53.790Z,921.17
2022-11-22T08:06:54.007Z,921.16
2022-11-22T08:07:55.107Z,921.16
2022-11-22T08:09:00.454Z,921.15
2022-11-22T08:09:56.113Z,921.14
2022-11-22T08:10:56.317Z,921.2
2022-11-22T08:11:56.652Z,921.2
2022-11-22T08:12:56.955Z,921.21
2022-11-22T08:13:57.718Z,921.25
2022-11-22T08:14:57.917Z,921.28
2022-11-22T08:16:02.211Z,921.31
2022-11-22T08:16:59.147Z,921.37
2022-11-22T08:18:00.075Z,921.35
2022-11-22T08:19:00.700Z,921.39
2022-11-22T08:20:00.914Z,921.4
2022-11-22T08:21:01.546Z,921.45
2022-11-22T08:22:01.789Z,921.46
2022-11-22T08:23:02.009Z,921.41
2022-11-22T08:24:02.252Z,921.41
2022-11-22T08:25:02.470Z,921.42
2022-11-22T08:26:02.699Z,921.46
2022-11-22T08:27:03.158Z,921.47
2022-11-22T08:28:03.770Z,921.49
2022-11-22T08:29:04.106Z,921.53
2022-11-22T08:30:04.830Z,921.52
2022-11-22T08:31:05.723Z,921.55
2022-11-22T08:32:06.652Z,921.52
2022-11-22T08:33:07.620Z,921.55
2022-11-22T08:34:07.828Z,921.56
2022-11-22T08:35:08.551Z,921.54
2022-11-22T08:36:09.233Z,921.61
2022-11-22T08:37:09.431Z,921.62
2022-11-22T08:38:10.074Z,921.64
2022-11-22T08:39:11.014Z,921.65
2022-11-22T08:40:11.644Z,921.65
2022-11-22T08:41:12.557Z,921.68
2022-11-22T08:42:12.879Z,921.68
2022-11-22T08:43:13.473Z,921.72
2022-11-22T08:44:14.387Z,921.74
2022-11-22T08:45:14.922Z,921.73
2022-11-22T08:46:15.560Z,921.76
2022-11-22T08:47:16.185Z,921.8
2022-11-22T08:48:21.755Z,921.78
2022-11-22T08:49:16.888Z,921.79
2022-11-22T08:50:17.330Z,921.82
2022-11-22T08:51:17.528Z,921.83
2022-11-22T08:52:18.432Z,921.79
2022-11-22T08:53:19.078Z,921.81
2022-11-22T08:54:19.990Z,921.83
2022-11-22T08:55:20.243Z,921.86
2022-11-22T08:56:20.730Z,921.88
2022-11-22T08:57:21.348Z,921.85
2022-11-22T08:58:21.655Z,921.89
2022-11-22T08:59:22.300Z,921.86
2022-11-22T09:00:23.497Z,921.88
2022-11-22T09:01:24.034Z,921.92
2022-11-22T09:02:24.667Z,921.94
2022-11-22T09:03:24.860Z,921.97
2022-11-22T09:04:25.778Z,921.99
2022-11-22T09:05:26.165Z,922.04
2022-11-22T09:08:25.551Z,922.06
2022-11-22T09:09:38.529Z,922.04
2022-11-22T09:10:38.904Z,922.03
2022-11-22T09:11:39.524Z,922.13
2022-11-22T09:12:40.090Z,922.06
2022-11-22T09:13:40.104Z,922.13
2022-11-22T09:14:40.959Z,922.09
2022-11-22T09:15:41.568Z,922.19
2022-11-22T09:16:42.193Z,922.24
2022-11-22T09:17:42.790Z,922.21
2022-11-22T09:18:43.413Z,922.19
2022-11-22T09:19:44.034Z,922.17
2022-11-22T09:20:44.537Z,922.23
2022-11-22T09:21:45.179Z,922.2
2022-11-22T09:22:45.712Z,922.24
2022-11-22T09:23:45.949Z,922.24
2022-11-22T09:24:46.885Z,922.13
2022-11-22T09:25:47.803Z,922.2
2022-11-22T09:26:48.079Z,922.17
2022-11-22T09:27:49.137Z,922.16
2022-11-22T09:28:49.445Z,922.2
2022-11-22T09:29:50.119Z,922.19
2022-11-22T09:30:50.853Z,922.21
2022-11-22T09:31:51.075Z,922.26
2022-11-22T09:32:51.367Z,922.27
2022-11-22T09:33:52.117Z,922.22
2022-11-22T09:34:53.050Z,922.26
2022-11-22T09:35:53.933Z,922.27
2022-11-22T09:36:54.548Z,922.29
2022-11-22T09:37:55.478Z,922.22
2022-11-22T09:38:55.841Z,922.21
2022-11-22T09:39:56.045Z,922.21
2022-11-22T09:40:56.240Z,922.19
2022-11-22T09:41:56.460Z,922.19
2022-11-22T09:42:57.088Z,922.17
2022-11-22T09:43:57.391Z,922.16
2022-11-22T09:44:58.226Z,922.18
2022-11-22T09:45:58.772Z,922.17
2022-11-22T09:46:59.407Z,922.2
2022-11-22T09:48:01.307Z,922.16
2022-11-22T09:49:00.898Z,922.12
2022-11-22T09:50:01.815Z,922.14
2022-11-22T09:51:02.021Z,922.17
2022-11-22T09:52:02.647Z,922.1
2022-11-22T09:53:02.987Z,922.13
2022-11-22T09:54:03.899Z,922.13
2022-11-22T09:55:04.818Z,922.14
2022-11-22T09:56:05.840Z,922.09
2022-11-22T09:57:06.055Z,922.07
2022-11-22T09:58:06.699Z,922.09
2022-11-22T09:59:06.912Z,922.06
2022-11-22T10:00:07.716Z,922.11
2022-11-22T10:01:08.547Z,922.18
2022-11-22T10:02:17.973Z,922.16
2022-11-22T10:03:20.491Z,922.15
2022-11-22T10:04:21.529Z,922.18
2022-11-22T10:05:22.322Z,922.15
2022-11-22T10:06:23.400Z,922.18
2022-11-22T10:07:24.026Z,922.21
2022-11-22T10:08:24.117Z,922.23
2022-11-22T10:09:25.042Z,922.22
2022-11-22T10:10:26.131Z,922.17
2022-11-22T10:11:28.218Z,922.16
2022-11-22T10:12:27.169Z,922.18
2022-11-22T10:13:28.055Z,922.16
2022-11-22T10:14:28.385Z,922.15
2022-11-22T10:15:28.930Z,922.22
2022-11-22T10:16:29.424Z,922.22
2022-11-22T10:17:29.951Z,922.18
2022-11-22T10:18:30.965Z,922.18
2022-11-22T10:19:32.112Z,922.18
2022-11-22T10:20:32.277Z,922.19
2022-11-22T10:21:32.852Z,922.13
2022-11-22T10:22:33.504Z,922.11
2022-11-22T10:23:33.759Z,922.14
2022-11-22T10:24:34.384Z,922.13
2022-11-22T10:25:35.294Z,922.06
2022-11-22T10:26:35.499Z,922.12
2022-11-22T10:27:35.695Z,922.09
2022-11-22T10:28:36.055Z,922.01
2022-11-22T10:29:36.094Z,922.04
2022-11-22T10:30:36.925Z,922
2022-11-22T10:31:37.145Z,921.93
2022-11-22T10:32:38.058Z,921.99
2022-11-22T10:33:42.946Z,921.96
2022-11-22T10:34:38.502Z,922.01
2022-11-22T10:35:38.776Z,921.99
2022-11-22T10:36:39.532Z,921.99
2022-11-22T10:37:39.737Z,921.98
2022-11-22T10:38:40.644Z,921.98
2022-11-22T10:39:41.401Z,922.01
2022-11-22T10:40:41.604Z,922.02
2022-11-22T10:41:42.279Z,921.97
2022-11-22T10:42:42.497Z,921.96
2022-11-22T10:43:43.135Z,922.01
2022-11-22T10:44:43.159Z,922.02
2022-11-22T10:45:43.727Z,922
2022-11-22T10:46:43.917Z,922.03
2022-11-22T10:47:44.748Z,922.07
2022-11-22T10:48:44.982Z,922.05
2022-11-22T10:49:45.200Z,922.08
2022-11-22T10:50:46.125Z,922.07
2022-11-22T10:51:46.495Z,922.13
2022-11-22T10:52:46.711Z,922.1
2022-11-22T10:53:47.441Z,922.08
2022-11-22T10:54:47.655Z,922.1
2022-11-22T10:55:48.561Z,922.06
2022-11-22T10:56:48.757Z,922.06
2022-11-22T10:57:49.269Z,922.09
2022-11-22T10:58:49.815Z,922.13
2022-11-22T10:59:50.451Z,922.1
2022-11-22T11:00:50.773Z,922.11
2022-11-22T11:01:51.714Z,922.1
2022-11-22T11:02:52.207Z,922.09
2022-11-22T11:03:52.813Z,922.08
2022-11-22T11:04:53.081Z,922.08
2022-11-22T11:07:23.043Z,922.04
2022-11-22T11:08:42.773Z,922.05
2022-11-22T11:10:35.198Z,922.08
2022-11-22T11:11:36.145Z,922.01
2022-11-22T11:12:36.811Z,921.96
2022-11-22T11:13:37.741Z,921.96
2022-11-22T11:14:38.798Z,921.98
2022-11-22T11:15:39.538Z,921.94
2022-11-22T11:16:40.582Z,922
2022-11-22T11:17:41.506Z,922
2022-11-22T11:18:42.428Z,922.03
2022-11-22T11:19:42.914Z,922.01
2022-11-22T11:20:43.133Z,922.07
2022-11-22T11:21:43.321Z,922.08
2022-11-22T11:23:12.940Z,922.09
2022-11-22T11:23:44.065Z,922.08
2022-11-22T11:24:44.257Z,922.1
2022-11-22T11:25:44.793Z,922.1
2022-11-22T11:26:45.680Z,922.08
2022-11-22T11:27:46.610Z,922.06
2022-11-22T11:28:47.524Z,922.08
2022-11-22T11:29:47.904Z,922.05
2022-11-22T11:30:48.260Z,922.05
2022-11-22T11:31:49.087Z,922.05
2022-11-22T11:32:49.296Z,921.99
2022-11-22T11:33:49.921Z,921.98
2022-11-22T11:34:50.548Z,921.98
2022-11-22T11:35:50.979Z,921.96
2022-11-22T11:36:51.187Z,921.9
2022-11-22T11:37:52.326Z,921.93
2022-11-22T11:38:52.659Z,921.95
2022-11-22T11:39:53.598Z,921.96
2022-11-22T11:40:54.512Z,921.97
2022-11-22T11:41:55.149Z,921.98
2022-11-22T11:42:56.064Z,921.94
2022-11-22T11:43:56.687Z,921.94
2022-11-22T11:44:57.038Z,921.92
2022-11-22T11:45:57.932Z,921.96
2022-11-22T11:46:58.461Z,921.93
2022-11-22T11:47:58.676Z,921.93
2022-11-22T11:48:59.162Z,921.9
2022-11-22T11:50:00.090Z,921.89
2022-11-22T11:51:00.863Z,921.85
2022-11-22T11:52:01.782Z,921.83
2022-11-22T11:53:01.979Z,921.83
2022-11-22T11:54:02.168Z,921.84
2022-11-22T11:55:03.099Z,921.83
2022-11-22T11:56:04.090Z,921.84
2022-11-22T11:57:04.997Z,921.86
2022-11-22T11:58:05.306Z,921.87
2022-11-22T11:59:06.162Z,921.86
2022-11-22T12:00:07.243Z,921.81
2022-11-22T12:01:07.884Z,921.82
2022-11-22T12:02:08.754Z,921.82
2022-11-22T12:03:09.259Z,921.82
2022-11-22T12:04:09.891Z,921.85
2022-11-22T12:05:10.521Z,921.86
2022-11-22T12:06:11.028Z,921.83
2022-11-22T12:07:11.960Z,921.84
2022-11-22T12:08:12.816Z,921.86
2022-11-22T12:09:13.739Z,921.86
2022-11-22T12:10:14.666Z,921.92
2022-11-22T12:11:14.869Z,921.9
2022-11-22T12:12:15.061Z,921.91
2022-11-22T12:13:15.251Z,921.91
2022-11-22T12:14:37.719Z,921.88
2022-11-22T12:15:23.406Z,921.88
2022-11-22T12:16:23.769Z,921.86
2022-11-22T12:17:24.151Z,921.86
2022-11-22T12:18:25.111Z,921.85
2022-11-22T12:19:26.056Z,921.89
2022-11-22T12:20:26.272Z,921.86
2022-11-22T12:21:26.610Z,921.85
2022-11-22T12:22:42.528Z,921.85
2022-11-22T12:23:28.010Z,921.83
2022-11-22T12:24:48.719Z,921.81
2022-11-22T12:25:45.103Z,921.76
2022-11-22T12:26:45.945Z,921.75
2022-11-22T12:27:46.152Z,921.73
2022-11-22T12:28:47.053Z,921.72
2022-11-22T12:29:47.674Z,921.7
2022-11-22T12:30:48.004Z,921.67
2022-11-22T12:31:48.670Z,921.67
2022-11-22T12:32:49.549Z,921.65
2022-11-22T12:33:49.744Z,921.6
2022-11-22T12:34:50.412Z,921.63
2022-11-22T12:35:50.681Z,921.6
2022-11-22T12:36:51.241Z,921.6
2022-11-22T12:37:51.697Z,921.6
2022-11-22T12:38:52.726Z,921.6
2022-11-22T12:39:53.296Z,921.61
2022-11-22T12:40:54.213Z,921.63
2022-11-22T12:41:54.452Z,921.61
2022-11-22T12:42:55.424Z,921.6
2022-11-22T12:43:55.701Z,921.6